createdAt,value
2022-10-09T00:02:13.958Z,13.46
2022-10-09T00:04:58.619Z,13.40
2022-10-09T00:07:43.317Z,13.32
2022-10-09T00:10:28.063Z,13.27
2022-10-09T00:13:12.904Z,13.21
2022-10-09T00:15:57.730Z,13.18
2022-10-09T00:18:42.536Z,13.16
2022-10-09T00:21:27.294Z,13.11
2022-10-09T00:24:12.016Z,13.11
2022-10-09T00:26:56.661Z,13.08
2022-10-09T00:29:41.487Z,13.10
2022-10-09T00:32:26.289Z,13.16
2022-10-09T00:35:10.949Z,13.17
2022-10-09T00:37:55.874Z,13.21
2022-10-09T00:40:40.530Z,13.18
2022-10-09T00:43:25.402Z,13.11
2022-10-09T00:46:10.308Z,13.11
2022-10-09T00:48:55.084Z,13.03
2022-10-09T00:51:39.724Z,12.97
2022-10-09T00:54:24.363Z,12.86
2022-10-09T00:57:09.144Z,12.81
2022-10-09T00:59:54.089Z,12.76
2022-10-09T01:02:38.908Z,12.73
2022-10-09T01:05:24.108Z,12.72
2022-10-09T01:08:08.956Z,12.71
2022-10-09T01:10:53.537Z,12.70
2022-10-09T01:13:38.379Z,12.66
2022-10-09T01:16:24.054Z,12.66
2022-10-09T01:19:09.468Z,12.67
2022-10-09T01:21:54.061Z,12.66
2022-10-09T01:24:38.962Z,12.63
2022-10-09T01:27:23.865Z,12.57
2022-10-09T01:30:08.661Z,12.58
2022-10-09T01:32:53.541Z,12.53
2022-10-09T01:35:38.152Z,12.44
2022-10-09T01:38:22.914Z,12.38
2022-10-09T01:41:07.469Z,12.35
2022-10-09T01:43:52.232Z,12.35
2022-10-09T01:46:36.989Z,12.36
2022-10-09T01:49:21.791Z,12.39
2022-10-09T01:52:06.451Z,12.42
2022-10-09T01:54:51.259Z,12.48
2022-10-09T01:57:36.091Z,12.49
2022-10-09T02:00:21.008Z,12.55
2022-10-09T02:03:05.827Z,12.54
2022-10-09T02:05:50.645Z,12.60
2022-10-09T02:08:35.661Z,12.55
2022-10-09T02:11:20.438Z,12.55
2022-10-09T02:14:05.265Z,12.57
2022-10-09T02:16:49.938Z,12.52
2022-10-09T02:19:34.800Z,12.40
2022-10-09T02:22:19.650Z,12.28
2022-10-09T02:25:04.490Z,12.28
2022-10-09T02:27:49.391Z,12.22
2022-10-09T02:30:34.275Z,12.18
2022-10-09T02:33:18.952Z,12.12
2022-10-09T02:36:03.746Z,12.05
2022-10-09T02:38:48.581Z,12.03
2022-10-09T02:41:33.464Z,12.03
2022-10-09T02:44:18.108Z,12.00
2022-10-09T02:47:02.806Z,11.97
2022-10-09T02:49:47.646Z,11.94
2022-10-09T02:52:32.367Z,11.91
2022-10-09T02:55:17.130Z,11.93
2022-10-09T02:58:02.010Z,11.90
2022-10-09T03:00:46.826Z,11.98
2022-10-09T03:03:31.638Z,11.97
2022-10-09T03:06:16.335Z,11.96
2022-10-09T03:09:01.401Z,12.00
2022-10-09T03:11:46.135Z,12.04
2022-10-09T03:14:31.026Z,12.10
2022-10-09T03:17:15.701Z,12.13
2022-10-09T03:20:00.466Z,12.10
2022-10-09T03:22:45.433Z,12.06
2022-10-09T03:25:30.271Z,12.04
2022-10-09T03:28:15.251Z,11.99
2022-10-09T03:30:59.984Z,11.97
2022-10-09T03:33:44.821Z,12.01
2022-10-09T03:36:29.399Z,12.00
2022-10-09T03:39:14.159Z,12.04
2022-10-09T03:41:58.878Z,11.98
2022-10-09T03:44:43.621Z,11.94
2022-10-09T03:47:28.335Z,11.94
2022-10-09T03:50:13.188Z,11.88
2022-10-09T03:52:57.935Z,11.86
2022-10-09T03:55:42.755Z,11.79
2022-10-09T03:58:27.561Z,11.79
2022-10-09T04:01:12.398Z,11.85
2022-10-09T04:03:57.163Z,11.87
2022-10-09T04:06:41.898Z,11.91
2022-10-09T04:09:26.815Z,11.90
2022-10-09T04:12:11.365Z,11.98
2022-10-09T04:14:56.190Z,11.97
2022-10-09T04:17:40.873Z,11.88
2022-10-09T04:20:25.599Z,11.90
2022-10-09T04:23:10.337Z,11.89
2022-10-09T04:25:55.108Z,11.90
2022-10-09T04:28:39.882Z,11.93
2022-10-09T04:31:24.631Z,11.90
2022-10-09T04:34:09.535Z,11.87
2022-10-09T04:36:54.293Z,11.80
2022-10-09T04:39:39.138Z,11.76
2022-10-09T04:42:23.950Z,11.69
2022-10-09T04:45:08.798Z,11.74
2022-10-09T04:47:53.550Z,11.74
2022-10-09T04:50:38.365Z,11.73
2022-10-09T04:53:23.245Z,11.75
2022-10-09T04:56:07.956Z,11.73
2022-10-09T04:58:52.796Z,11.69
2022-10-09T05:01:38.672Z,11.67
2022-10-09T05:04:23.781Z,11.56
2022-10-09T05:07:08.486Z,11.57
2022-10-09T05:09:53.397Z,11.59
2022-10-09T05:12:38.145Z,11.51
2022-10-09T05:15:22.947Z,11.46
2022-10-09T05:18:07.865Z,11.41
2022-10-09T05:20:52.643Z,11.31
2022-10-09T05:23:37.372Z,11.33
2022-10-09T05:26:22.162Z,11.29
2022-10-09T05:29:07.061Z,11.28
2022-10-09T05:31:51.671Z,11.38
2022-10-09T05:34:36.570Z,11.47
2022-10-09T05:37:21.271Z,11.53
2022-10-09T05:40:05.974Z,11.59
2022-10-09T05:42:50.947Z,11.62
2022-10-09T05:45:36.045Z,11.68
2022-10-09T05:48:21.231Z,11.71
2022-10-09T05:51:06.019Z,11.77
2022-10-09T05:53:50.869Z,11.85
2022-10-09T05:56:35.597Z,11.88
2022-10-09T05:59:20.395Z,11.91
2022-10-09T06:02:05.268Z,11.88
2022-10-09T06:04:49.857Z,11.80
2022-10-09T06:07:34.549Z,11.79
2022-10-09T06:10:19.426Z,11.85
2022-10-09T06:13:04.135Z,11.82
2022-10-09T06:15:48.945Z,11.90
2022-10-09T06:18:33.729Z,12.00
2022-10-09T06:21:18.465Z,12.09
2022-10-09T06:24:03.356Z,12.14
2022-10-09T06:26:48.035Z,12.20
2022-10-09T06:29:32.872Z,12.23
2022-10-09T06:32:17.641Z,12.23
2022-10-09T06:35:02.475Z,12.23
2022-10-09T06:37:47.206Z,12.23
2022-10-09T06:40:32.117Z,12.28
2022-10-09T06:43:16.971Z,12.33
2022-10-09T06:46:01.799Z,12.36
2022-10-09T06:48:47.045Z,12.44
2022-10-09T06:51:31.740Z,12.53
2022-10-09T06:54:16.604Z,12.73
2022-10-09T06:57:01.306Z,12.92
2022-10-09T06:59:46.140Z,13.29
2022-10-09T07:02:30.892Z,13.48
2022-10-09T07:05:15.665Z,13.89
2022-10-09T07:08:00.579Z,14.41
2022-10-09T07:10:45.353Z,14.52
2022-10-09T07:13:30.182Z,14.92
2022-10-09T07:16:14.984Z,14.96
2022-10-09T07:18:59.726Z,14.43
2022-10-09T07:21:44.463Z,14.13
2022-10-09T07:24:29.308Z,13.95
2022-10-09T07:27:14.031Z,13.78
2022-10-09T07:29:58.772Z,13.71
2022-10-09T07:32:43.476Z,13.57
2022-10-09T07:35:28.240Z,13.46
2022-10-09T07:38:12.903Z,13.45
2022-10-09T07:40:57.746Z,13.56
2022-10-09T07:43:42.478Z,13.60
2022-10-09T07:46:32.148Z,13.73
2022-10-09T07:49:18.089Z,13.92
2022-10-09T07:52:02.861Z,14.12
2022-10-09T07:54:47.505Z,14.26
2022-10-09T07:57:32.125Z,14.29
2022-10-09T08:00:16.727Z,14.27
2022-10-09T08:03:01.624Z,14.32
2022-10-09T08:05:46.344Z,14.34
2022-10-09T08:08:31.032Z,14.50
2022-10-09T08:11:15.601Z,14.65
2022-10-09T08:14:00.377Z,14.73
2022-10-09T08:16:45.052Z,14.79
2022-10-09T08:19:29.870Z,14.91
2022-10-09T08:22:14.687Z,15.04
2022-10-09T08:24:59.557Z,15.13
2022-10-09T08:27:44.307Z,15.29
2022-10-09T08:30:29.007Z,15.38
2022-10-09T08:33:13.828Z,15.46
2022-10-09T08:35:58.728Z,15.40
2022-10-09T08:38:48.011Z,15.43
2022-10-09T08:41:33.321Z,15.51
2022-10-09T08:44:18.159Z,15.63
2022-10-09T08:47:02.965Z,15.61
2022-10-09T08:49:47.677Z,15.62
2022-10-09T08:52:32.543Z,15.68
2022-10-09T08:55:17.148Z,15.66
2022-10-09T08:58:01.887Z,15.74
2022-10-09T09:00:46.649Z,15.80
2022-10-09T09:03:31.418Z,15.88
2022-10-09T09:06:16.197Z,15.99
2022-10-09T09:09:00.989Z,16.06
2022-10-09T09:11:45.806Z,16.15
2022-10-09T09:14:30.599Z,16.15
2022-10-09T09:17:15.511Z,16.16
2022-10-09T09:20:00.224Z,16.09
2022-10-09T09:22:44.941Z,16.02
2022-10-09T09:25:29.684Z,16.00
2022-10-09T09:28:14.269Z,16.13
2022-10-09T09:30:59.152Z,16.17
2022-10-09T09:33:44.898Z,16.23
2022-10-09T09:36:30.201Z,16.30
2022-10-09T09:42:19.922Z,16.51
2022-10-09T09:45:04.599Z,16.50
2022-10-09T09:47:49.518Z,16.48
2022-10-09T09:50:48.468Z,16.47
2022-10-09T09:53:35.225Z,16.28
2022-10-09T09:56:20.039Z,16.22
2022-10-09T09:59:04.657Z,16.26
2022-10-09T10:01:49.500Z,16.43
2022-10-09T10:04:34.195Z,16.60
2022-10-09T10:07:18.844Z,16.62
2022-10-09T10:10:03.610Z,16.71
2022-10-09T10:12:48.558Z,16.77
2022-10-09T10:15:33.779Z,16.90
2022-10-09T10:18:18.496Z,16.74
2022-10-09T10:21:03.339Z,16.91
2022-10-09T10:23:48.053Z,16.90
2022-10-09T10:26:32.734Z,17.10
2022-10-09T10:29:17.375Z,17.21
2022-10-09T10:32:02.242Z,17.16
2022-10-09T10:34:47.059Z,17.25
2022-10-09T10:37:31.941Z,17.37
2022-10-09T10:40:16.710Z,17.31
2022-10-09T10:43:01.481Z,17.35
2022-10-09T10:45:46.121Z,17.26
2022-10-09T10:48:30.854Z,17.14
2022-10-09T10:51:15.838Z,17.07
2022-10-09T10:54:00.564Z,16.92
2022-10-09T10:56:45.347Z,16.76
2022-10-09T10:59:30.114Z,16.62
2022-10-09T11:02:14.917Z,16.63
2022-10-09T11:04:59.727Z,16.71
2022-10-09T11:07:44.400Z,16.65
2022-10-09T11:10:29.117Z,16.63
2022-10-09T11:13:13.868Z,16.60
2022-10-09T11:15:58.695Z,16.60
2022-10-09T11:18:43.449Z,16.66
2022-10-09T11:21:28.240Z,16.73
2022-10-09T11:24:12.938Z,16.75
2022-10-09T11:27:02.405Z,16.91
2022-10-09T11:29:48.215Z,17.23
2022-10-09T11:32:33.125Z,17.55
2022-10-09T11:35:17.736Z,17.81
2022-10-09T11:38:02.348Z,17.89
2022-10-09T11:40:47.295Z,17.88
2022-10-09T11:43:32.135Z,17.99
2022-10-09T11:46:17.039Z,18.00
2022-10-09T11:49:01.672Z,18.08
2022-10-09T11:51:46.426Z,17.92
2022-10-09T11:54:31.349Z,17.80
2022-10-09T11:57:16.143Z,17.77
2022-10-09T12:00:00.967Z,17.83
2022-10-09T12:02:45.707Z,17.92
2022-10-09T12:05:30.304Z,17.91
2022-10-09T12:08:18.338Z,17.94
2022-10-09T12:11:04.732Z,17.75
2022-10-09T12:13:49.528Z,17.65
2022-10-09T12:16:34.403Z,17.66
2022-10-09T12:19:19.086Z,17.66
2022-10-09T12:22:03.964Z,17.83
2022-10-09T12:24:48.717Z,17.89
2022-10-09T12:27:33.595Z,17.94
2022-10-09T12:30:18.475Z,18.01
2022-10-09T12:33:03.409Z,18.03
2022-10-09T12:35:48.084Z,17.97
2022-10-09T12:38:32.823Z,17.96
2022-10-09T12:41:20.300Z,17.77
2022-10-09T12:44:05.457Z,17.79
2022-10-09T12:46:50.154Z,17.74
2022-10-09T12:49:34.813Z,17.78
2022-10-09T12:52:19.917Z,17.71
2022-10-09T12:55:04.622Z,17.76
2022-10-09T12:57:49.515Z,17.89
2022-10-09T13:00:34.216Z,17.83
2022-10-09T13:03:18.992Z,17.82
2022-10-09T13:06:03.661Z,17.88
2022-10-09T13:08:48.384Z,17.83
2022-10-09T13:11:33.256Z,17.75
2022-10-09T13:14:18.081Z,17.84
2022-10-09T13:17:03.119Z,17.81
2022-10-09T13:19:47.684Z,17.80
2022-10-09T13:22:35.205Z,17.84
2022-10-09T13:25:20.720Z,17.77
2022-10-09T13:28:05.452Z,17.74
2022-10-09T13:30:50.324Z,17.61
2022-10-09T13:33:34.957Z,17.66
2022-10-09T13:36:19.797Z,17.76
2022-10-09T13:39:04.436Z,17.73
2022-10-09T13:41:49.208Z,17.54
2022-10-09T13:44:33.974Z,17.31
2022-10-09T13:47:22.051Z,17.25
2022-10-09T13:50:09.410Z,17.29
2022-10-09T13:52:54.015Z,17.47
2022-10-09T13:55:38.728Z,17.66
2022-10-09T13:58:23.354Z,17.81
2022-10-09T14:01:08.209Z,17.89
2022-10-09T14:03:52.878Z,17.99
2022-10-09T14:06:37.708Z,18.00
2022-10-09T14:09:22.520Z,18.12
2022-10-09T14:12:07.309Z,18.17
2022-10-09T14:14:52.191Z,18.18
2022-10-09T14:17:36.902Z,18.11
2022-10-09T14:20:21.699Z,18.22
2022-10-09T14:23:06.395Z,18.19
2022-10-09T14:25:51.183Z,18.24
2022-10-09T14:28:35.966Z,18.31
2022-10-09T14:31:21.107Z,18.34
2022-10-09T14:34:06.199Z,18.34
2022-10-09T14:36:51.656Z,18.29
2022-10-09T14:39:36.623Z,18.30
2022-10-09T14:42:21.334Z,18.21
2022-10-09T14:45:06.199Z,18.17
2022-10-09T14:47:50.811Z,18.14
2022-10-09T14:50:35.804Z,18.11
2022-10-09T14:53:20.525Z,18.11
2022-10-09T14:56:05.333Z,18.09
2022-10-09T14:58:50.158Z,18.08
2022-10-09T15:01:35.069Z,18.05
2022-10-09T15:04:19.995Z,18.05
2022-10-09T15:07:05.459Z,18.00
2022-10-09T15:09:50.614Z,18.02
2022-10-09T15:12:35.289Z,18.03
2022-10-09T15:15:20.222Z,18.05
2022-10-09T15:18:05.164Z,18.02
2022-10-09T15:20:50.315Z,17.81
2022-10-09T15:23:35.073Z,17.63
2022-10-09T15:26:19.937Z,17.62
2022-10-09T15:29:04.784Z,17.60
2022-10-09T15:31:49.439Z,17.49
2022-10-09T15:34:36.488Z,17.33
2022-10-09T15:37:24.012Z,17.23
2022-10-09T15:40:08.772Z,17.20
2022-10-09T15:42:53.553Z,17.21
2022-10-09T15:45:38.357Z,17.22
2022-10-09T15:48:23.214Z,17.22
2022-10-09T15:51:07.888Z,17.22
2022-10-09T15:53:52.857Z,17.23
2022-10-09T15:56:40.130Z,17.25
2022-10-09T15:59:25.257Z,17.21
2022-10-09T16:02:09.973Z,17.19
2022-10-09T16:04:54.733Z,17.14
2022-10-09T16:07:39.495Z,17.13
2022-10-09T16:10:24.071Z,17.05
2022-10-09T16:13:08.799Z,16.98
2022-10-09T16:15:53.502Z,16.89
2022-10-09T16:18:38.203Z,16.82
2022-10-09T16:21:22.959Z,16.72
2022-10-09T16:24:07.714Z,16.66
2022-10-09T16:26:52.399Z,16.57
2022-10-09T16:29:37.154Z,16.40
2022-10-09T16:32:21.983Z,16.28
2022-10-09T16:35:06.552Z,16.16
2022-10-09T16:37:51.453Z,16.09
2022-10-09T16:43:40.932Z,15.97
2022-10-09T16:46:25.815Z,15.91
2022-10-09T16:49:10.993Z,15.89
2022-10-09T16:51:55.747Z,15.86
2022-10-09T16:54:40.513Z,15.84
2022-10-09T16:57:25.289Z,15.79
2022-10-09T17:00:10.071Z,15.74
2022-10-09T17:02:54.793Z,15.69
2022-10-09T17:05:39.335Z,15.58
2022-10-09T17:08:24.074Z,15.55
2022-10-09T17:11:08.821Z,15.51
2022-10-09T17:13:53.432Z,15.38
2022-10-09T17:16:38.340Z,15.30
2022-10-09T17:19:23.139Z,15.24
2022-10-09T17:22:07.966Z,15.10
2022-10-09T17:24:52.653Z,14.99
2022-10-09T17:27:37.417Z,14.86
2022-10-09T17:30:22.108Z,14.76
2022-10-09T17:33:06.954Z,14.75
2022-10-09T17:35:51.537Z,14.92
2022-10-09T17:38:36.386Z,15.34
2022-10-09T17:41:21.192Z,15.74
2022-10-09T17:44:06.017Z,15.85
2022-10-09T17:46:50.911Z,15.38
2022-10-09T17:49:35.642Z,15.00
2022-10-09T17:52:20.515Z,14.72
2022-10-09T17:55:05.235Z,14.49
2022-10-09T17:57:50.308Z,14.30
2022-10-09T18:00:35.345Z,14.23
2022-10-09T18:03:20.170Z,14.11
2022-10-09T18:06:04.937Z,14.02
2022-10-09T18:08:49.884Z,13.99
2022-10-09T18:11:34.807Z,14.01
2022-10-09T18:14:19.423Z,13.97
2022-10-09T18:17:04.652Z,13.94
2022-10-09T18:19:49.426Z,13.92
2022-10-09T18:22:34.164Z,13.87
2022-10-09T18:25:18.826Z,13.83
2022-10-09T18:28:03.709Z,13.73
2022-10-09T18:30:48.842Z,13.71
2022-10-09T18:33:33.686Z,13.74
2022-10-09T18:36:18.480Z,13.74
2022-10-09T18:39:03.297Z,13.73
2022-10-09T18:41:48.237Z,13.66
2022-10-09T18:44:32.943Z,13.69
2022-10-09T18:47:17.729Z,13.68
2022-10-09T18:50:02.483Z,13.88
2022-10-09T18:52:47.731Z,13.90
2022-10-09T18:55:32.620Z,13.88
2022-10-09T18:58:17.502Z,13.87
2022-10-09T19:01:06.643Z,13.94
2022-10-09T19:03:52.461Z,13.83
2022-10-09T19:06:37.350Z,13.76
2022-10-09T19:09:22.114Z,14.06
2022-10-09T19:12:06.815Z,14.15
2022-10-09T19:14:51.508Z,14.04
2022-10-09T19:17:36.203Z,14.07
2022-10-09T19:20:21.235Z,13.96
2022-10-09T19:23:05.890Z,13.97
2022-10-09T19:25:50.716Z,13.88
2022-10-09T19:28:35.414Z,13.86
2022-10-09T19:31:20.139Z,14.13
2022-10-09T19:34:04.954Z,14.19
2022-10-09T19:36:49.786Z,14.11
2022-10-09T19:39:34.503Z,13.94
2022-10-09T19:42:19.261Z,13.96
2022-10-09T19:45:03.918Z,13.85
2022-10-09T19:47:53.510Z,13.81
2022-10-09T19:50:39.060Z,13.84
2022-10-09T19:53:23.974Z,13.95
2022-10-09T19:56:08.826Z,13.98
2022-10-09T19:58:53.773Z,14.19
2022-10-09T20:01:38.520Z,14.50
2022-10-09T20:04:23.166Z,14.52
2022-10-09T20:07:12.537Z,14.53
2022-10-09T20:09:57.603Z,14.68
2022-10-09T20:12:42.359Z,14.59
2022-10-09T20:15:27.152Z,14.50
2022-10-09T20:18:12.470Z,14.32
2022-10-09T20:20:57.157Z,14.30
2022-10-09T20:23:41.984Z,14.41
2022-10-09T20:26:26.617Z,14.38
2022-10-09T20:29:11.487Z,14.77
2022-10-09T20:31:56.211Z,15.04
2022-10-09T20:34:40.998Z,15.10
2022-10-09T20:37:25.947Z,14.88
2022-10-09T20:40:10.608Z,14.68
2022-10-09T20:42:55.401Z,14.49
2022-10-09T20:45:39.991Z,14.29
2022-10-09T20:48:24.593Z,14.15
2022-10-09T20:51:09.485Z,14.02
2022-10-09T20:53:54.305Z,13.88
2022-10-09T20:56:38.913Z,13.75
2022-10-09T20:59:24.241Z,13.66
2022-10-09T21:02:09.110Z,13.63
2022-10-09T21:04:53.790Z,13.57
2022-10-09T21:07:38.599Z,13.53
2022-10-09T21:10:23.344Z,13.48
2022-10-09T21:13:08.426Z,13.45
2022-10-09T21:15:53.107Z,13.43
2022-10-09T21:18:38.043Z,13.39
2022-10-09T21:21:22.719Z,13.37
2022-10-09T21:24:07.553Z,13.33
2022-10-09T21:26:52.319Z,13.31
2022-10-09T21:29:37.048Z,13.34
2022-10-09T21:32:21.859Z,13.36
2022-10-09T21:35:06.676Z,13.34
2022-10-09T21:37:51.417Z,13.35
2022-10-09T21:40:36.080Z,13.36
2022-10-09T21:43:20.930Z,13.34
2022-10-09T21:46:05.615Z,13.32
2022-10-09T21:48:50.329Z,13.30
2022-10-09T21:51:35.095Z,13.31
2022-10-09T21:54:19.841Z,13.29
2022-10-09T21:57:04.521Z,13.35
2022-10-09T21:59:49.385Z,13.34
2022-10-09T22:02:34.271Z,13.33
2022-10-09T22:05:18.887Z,13.33
2022-10-09T22:08:03.755Z,13.31
2022-10-09T22:10:48.395Z,13.30
2022-10-09T22:13:33.243Z,13.27
2022-10-09T22:16:18.027Z,13.24
2022-10-09T22:19:02.887Z,13.25
2022-10-09T22:21:47.573Z,13.26
2022-10-09T22:24:32.296Z,13.23
2022-10-09T22:27:16.936Z,13.24
2022-10-09T22:30:01.722Z,13.21
2022-10-09T22:32:46.573Z,13.22
2022-10-09T22:35:31.242Z,13.21
2022-10-09T22:38:16.172Z,13.25
2022-10-09T22:41:00.842Z,13.29
2022-10-09T22:43:45.608Z,13.23
2022-10-09T22:46:30.309Z,13.24
2022-10-09T22:49:15.018Z,13.21
2022-10-09T22:51:59.856Z,13.18
2022-10-09T22:54:44.731Z,13.19
2022-10-09T22:57:29.370Z,13.20
2022-10-09T23:00:14.244Z,13.16
2022-10-09T23:02:59.062Z,13.20
2022-10-09T23:05:43.859Z,13.18
2022-10-09T23:08:28.558Z,13.17
2022-10-09T23:11:13.253Z,13.19
2022-10-09T23:13:58.026Z,13.15
2022-10-09T23:16:42.798Z,13.13
2022-10-09T23:19:27.597Z,13.13
2022-10-09T23:22:12.261Z,13.12
2022-10-09T23:24:57.187Z,13.09
2022-10-09T23:27:41.931Z,13.08
2022-10-09T23:30:26.785Z,13.06
2022-10-09T23:33:11.591Z,13.02
2022-10-09T23:35:56.271Z,13.02
2022-10-09T23:38:41.010Z,13.01
2022-10-09T23:41:25.840Z,12.96
2022-10-09T23:44:10.632Z,13.00
2022-10-09T23:46:55.364Z,13.00
2022-10-09T23:49:40.198Z,13.02
2022-10-09T23:52:24.934Z,13.01
2022-10-09T23:55:09.641Z,13.02
2022-10-09T23:57:54.247Z,13.04
